createdAt,value
2022-11-07T00:02:10.070Z,51.23
2022-11-07T00:04:38.846Z,54.00
2022-11-07T00:07:07.647Z,52.07
2022-11-07T00:09:35.718Z,56.07
2022-11-07T00:12:04.599Z,50.00
2022-11-07T00:14:32.633Z,45.90
2022-11-07T00:17:02.013Z,45.93
2022-11-07T00:19:32.763Z,51.50
2022-11-07T00:22:00.868Z,48.80
2022-11-07T00:24:28.917Z,50.33
2022-11-07T00:26:57.028Z,48.73
2022-11-07T00:29:25.110Z,45.97
2022-11-07T00:31:53.108Z,53.73
2022-11-07T00:34:22.608Z,52.67
2022-11-07T00:36:50.600Z,51.97
2022-11-07T00:39:25.880Z,54.30
2022-11-07T00:41:54.412Z,52.33
2022-11-07T00:44:22.754Z,46.00
2022-11-07T00:46:50.756Z,51.17
2022-11-07T00:49:18.956Z,56.10
2022-11-07T00:51:48.278Z,52.17
2022-11-07T00:54:16.241Z,54.23
2022-11-07T00:56:44.251Z,54.33
2022-11-07T00:59:12.759Z,55.27
2022-11-07T01:01:40.809Z,58.73
2022-11-07T01:04:29.529Z,54.57
2022-11-07T01:06:59.408Z,50.50
2022-11-07T01:09:27.928Z,55.10
2022-11-07T01:11:55.938Z,52.83
2022-11-07T01:14:24.734Z,52.30
2022-11-07T01:16:53.255Z,50.70
2022-11-07T01:19:22.053Z,52.80
2022-11-07T01:21:51.067Z,49.63
2022-11-07T01:24:20.658Z,52.03
2022-11-07T01:26:49.186Z,48.37
2022-11-07T01:29:20.831Z,44.53
2022-11-07T01:31:50.516Z,48.30
2022-11-07T01:34:18.901Z,48.60
2022-11-07T01:36:47.140Z,43.60
2022-11-07T01:39:21.899Z,50.70
2022-11-07T01:41:51.286Z,47.27
2022-11-07T01:44:52.134Z,45.70
2022-11-07T01:47:20.757Z,41.97
2022-11-07T01:49:49.091Z,49.73
2022-11-07T01:52:20.532Z,43.80
2022-11-07T01:54:53.832Z,43.90
2022-11-07T01:57:28.686Z,41.50
2022-11-07T02:00:01.253Z,45.87
2022-11-07T02:02:30.210Z,45.90
2022-11-07T02:05:06.924Z,43.13
2022-11-07T02:07:36.310Z,45.43
2022-11-07T02:10:05.515Z,41.20
2022-11-07T02:12:35.580Z,44.37
2022-11-07T02:15:04.161Z,39.63
2022-11-07T02:17:32.231Z,38.23
2022-11-07T02:20:00.221Z,37.90
2022-11-07T02:22:36.415Z,36.33
2022-11-07T02:25:15.918Z,35.87
2022-11-07T02:27:44.938Z,32.43
2022-11-07T02:30:16.129Z,33.67
2022-11-07T02:32:44.383Z,35.77
2022-11-07T02:35:35.839Z,34.77
2022-11-07T02:38:05.828Z,38.00
2022-11-07T02:40:35.308Z,33.87
2022-11-07T02:43:04.163Z,33.80
2022-11-07T02:45:36.013Z,33.10
2022-11-07T02:48:04.086Z,29.20
2022-11-07T02:50:32.086Z,27.33
2022-11-07T02:53:00.131Z,33.13
2022-11-07T02:55:34.937Z,29.57
2022-11-07T02:58:05.507Z,29.57
2022-11-07T03:00:33.488Z,29.67
2022-11-07T03:03:01.458Z,31.83
2022-11-07T03:05:29.560Z,30.97
2022-11-07T03:07:57.539Z,27.47
2022-11-07T03:10:38.936Z,30.50
2022-11-07T03:13:10.225Z,31.37
2022-11-07T03:15:38.185Z,32.30
2022-11-07T03:18:06.264Z,29.13
2022-11-07T03:20:34.283Z,29.33
2022-11-07T03:23:02.272Z,26.50
2022-11-07T03:25:30.240Z,26.00
2022-11-07T03:27:58.260Z,28.30
2022-11-07T03:30:27.697Z,26.43
2022-11-07T03:32:56.308Z,24.70
2022-11-07T03:35:24.431Z,26.57
2022-11-07T03:37:52.538Z,25.20
2022-11-07T03:40:20.491Z,25.77
2022-11-07T03:42:48.716Z,27.37
2022-11-07T03:45:17.821Z,24.53
2022-11-07T03:47:47.886Z,26.03
2022-11-07T03:50:18.433Z,26.00
2022-11-07T03:52:52.973Z,24.60
2022-11-07T03:55:21.045Z,25.13
2022-11-07T03:57:49.188Z,23.33
2022-11-07T04:00:18.331Z,25.37
2022-11-07T04:02:54.049Z,24.37
2022-11-07T04:05:22.183Z,24.53
2022-11-07T04:07:50.203Z,24.47
2022-11-07T04:10:18.369Z,23.03
2022-11-07T04:13:03.740Z,22.60
2022-11-07T04:15:49.370Z,20.43
2022-11-07T04:18:18.696Z,24.20
2022-11-07T04:20:46.763Z,24.40
2022-11-07T04:23:14.980Z,21.80
2022-11-07T04:26:00.441Z,22.47
2022-11-07T04:28:28.806Z,23.13
2022-11-07T04:30:56.840Z,22.50
2022-11-07T04:33:26.188Z,22.40
2022-11-07T04:35:54.159Z,25.17
2022-11-07T04:38:22.116Z,22.43
2022-11-07T04:40:54.516Z,25.77
2022-11-07T04:43:22.728Z,24.40
2022-11-07T04:45:50.736Z,22.10
2022-11-07T04:48:19.485Z,23.50
2022-11-07T04:50:49.444Z,23.53
2022-11-07T04:53:18.982Z,24.43
2022-11-07T04:55:47.513Z,22.80
2022-11-07T04:58:15.507Z,22.40
2022-11-07T05:00:43.753Z,21.87
2022-11-07T05:03:18.398Z,22.07
2022-11-07T05:05:48.025Z,22.67
2022-11-07T05:08:16.000Z,24.07
2022-11-07T05:10:44.376Z,22.70
2022-11-07T05:13:12.622Z,21.07
2022-11-07T05:15:41.064Z,22.87
2022-11-07T05:18:11.185Z,23.10
2022-11-07T05:20:40.941Z,22.83
2022-11-07T05:23:21.305Z,22.80
2022-11-07T05:25:50.768Z,22.10
2022-11-07T05:28:28.064Z,23.70
2022-11-07T05:31:01.169Z,22.60
2022-11-07T05:33:30.419Z,22.27
2022-11-07T05:35:58.438Z,21.70
2022-11-07T05:38:27.832Z,21.77
2022-11-07T05:40:55.791Z,21.53
2022-11-07T05:43:24.600Z,20.83
2022-11-07T05:45:52.562Z,22.43
2022-11-07T05:48:20.564Z,20.63
2022-11-07T05:50:48.540Z,21.27
2022-11-07T05:53:16.842Z,20.47
2022-11-07T05:55:46.462Z,20.37
2022-11-07T05:58:21.011Z,21.17
2022-11-07T06:00:49.491Z,20.33
2022-11-07T06:03:18.525Z,19.60
2022-11-07T06:05:48.091Z,22.03
2022-11-07T06:08:16.421Z,20.97
2022-11-07T06:10:46.291Z,21.70
2022-11-07T06:13:16.543Z,19.73
2022-11-07T06:15:46.255Z,21.23
2022-11-07T06:18:16.012Z,20.43
2022-11-07T06:20:44.786Z,19.47
2022-11-07T06:23:13.694Z,19.03
2022-11-07T06:25:42.059Z,21.67
2022-11-07T06:28:19.054Z,23.30
2022-11-07T06:30:47.152Z,21.70
2022-11-07T06:33:18.698Z,21.43
2022-11-07T06:35:47.761Z,23.60
2022-11-07T06:38:16.289Z,20.73
2022-11-07T06:40:44.898Z,21.47
2022-11-07T06:43:15.945Z,19.13
2022-11-07T06:45:45.808Z,20.77
2022-11-07T06:48:14.268Z,22.53
2022-11-07T06:50:42.349Z,19.17
2022-11-07T06:53:13.600Z,20.47
2022-11-07T06:55:42.037Z,22.40
2022-11-07T06:58:10.139Z,22.20
2022-11-07T07:00:39.508Z,20.80
2022-11-07T07:03:07.587Z,19.77
2022-11-07T07:05:35.611Z,20.43
2022-11-07T07:08:03.986Z,22.97
2022-11-07T07:10:32.429Z,19.30
2022-11-07T07:13:01.847Z,19.20
2022-11-07T07:15:49.770Z,20.57
2022-11-07T07:18:21.056Z,21.37
2022-11-07T07:20:51.906Z,21.67
2022-11-07T07:23:21.444Z,18.73
2022-11-07T07:25:49.923Z,20.50
2022-11-07T07:28:17.949Z,20.73
2022-11-07T07:30:51.395Z,22.60
2022-11-07T07:33:28.119Z,22.37
2022-11-07T07:35:56.463Z,20.30
2022-11-07T07:38:24.465Z,22.63
2022-11-07T07:40:52.448Z,20.10
2022-11-07T07:43:21.018Z,21.70
2022-11-07T07:45:49.005Z,22.03
2022-11-07T07:48:17.051Z,20.93
2022-11-07T07:50:55.076Z,21.70
2022-11-07T07:53:23.071Z,18.93
2022-11-07T07:55:51.128Z,21.43
2022-11-07T07:58:19.532Z,21.20
2022-11-07T08:00:47.567Z,19.37
2022-11-07T08:03:15.874Z,22.00
2022-11-07T08:05:44.094Z,21.23
2022-11-07T08:08:15.750Z,20.43
2022-11-07T08:10:43.755Z,22.40
2022-11-07T08:13:11.865Z,20.80
2022-11-07T08:15:46.099Z,22.43
2022-11-07T08:18:14.451Z,20.63
2022-11-07T08:20:42.450Z,19.27
2022-11-07T08:23:16.331Z,17.67
2022-11-07T08:25:51.075Z,17.33
2022-11-07T08:28:20.244Z,19.23
2022-11-07T08:30:55.955Z,21.13
2022-11-07T08:33:24.110Z,19.57
2022-11-07T08:35:52.333Z,18.37
2022-11-07T08:38:20.356Z,18.10
2022-11-07T08:40:50.535Z,18.47
2022-11-07T08:43:18.987Z,19.07
2022-11-07T08:46:07.051Z,17.87
2022-11-07T08:48:35.085Z,16.37
2022-11-07T08:51:04.019Z,17.10
2022-11-07T08:53:32.931Z,16.93
2022-11-07T08:56:06.957Z,20.50
2022-11-07T08:58:35.247Z,17.57
2022-11-07T09:01:07.021Z,18.40
2022-11-07T09:03:48.790Z,21.03
2022-11-07T09:06:21.436Z,18.50
2022-11-07T09:08:49.458Z,21.17
2022-11-07T09:11:19.992Z,17.10
2022-11-07T09:13:48.560Z,16.73
2022-11-07T09:16:18.262Z,19.93
2022-11-07T09:18:53.131Z,20.20
2022-11-07T09:21:22.893Z,17.80
2022-11-07T09:23:51.350Z,19.13
2022-11-07T09:26:27.119Z,20.80
2022-11-07T09:29:00.789Z,19.03
2022-11-07T09:31:31.565Z,19.53
2022-11-07T09:33:59.581Z,19.13
2022-11-07T09:36:27.595Z,19.33
2022-11-07T09:38:56.206Z,18.77
2022-11-07T09:41:40.671Z,19.97
2022-11-07T09:44:21.044Z,19.67
2022-11-07T09:46:58.708Z,20.83
2022-11-07T09:49:37.137Z,18.57
2022-11-07T09:52:14.684Z,21.60
2022-11-07T09:54:47.103Z,15.77
2022-11-07T09:57:18.475Z,16.77
2022-11-07T09:59:51.103Z,20.77
2022-11-07T10:02:21.817Z,16.63
2022-11-07T10:04:56.505Z,16.73
2022-11-07T10:07:33.647Z,13.03
2022-11-07T10:10:07.847Z,14.60
2022-11-07T10:13:08.248Z,13.83
2022-11-07T10:15:48.540Z,10.17
2022-11-07T10:18:23.490Z,12.10
2022-11-07T10:21:31.286Z,12.77
2022-11-07T10:24:00.931Z,9.77
2022-11-07T10:26:31.651Z,10.17
2022-11-07T10:29:11.945Z,10.77
2022-11-07T10:31:42.225Z,8.87
2022-11-07T10:34:18.860Z,9.53
2022-11-07T10:36:46.897Z,9.47
2022-11-07T10:39:17.071Z,7.33
2022-11-07T10:42:02.165Z,10.70
2022-11-07T10:44:32.944Z,7.17
2022-11-07T10:47:02.168Z,6.10
2022-11-07T10:49:31.509Z,5.77
2022-11-07T10:52:09.263Z,4.87
2022-11-07T10:54:37.415Z,6.70
2022-11-07T10:57:19.162Z,4.87
2022-11-07T10:59:57.553Z,4.13
2022-11-07T11:02:27.514Z,6.37
2022-11-07T11:04:57.495Z,5.03
2022-11-07T11:07:33.581Z,5.67
2022-11-07T11:10:01.628Z,4.53
2022-11-07T11:12:34.547Z,4.77
2022-11-07T11:15:13.303Z,3.40
2022-11-07T11:17:41.734Z,4.53
2022-11-07T11:20:36.837Z,3.53
2022-11-07T11:23:09.053Z,3.27
2022-11-07T11:25:47.711Z,4.67
2022-11-07T11:28:29.183Z,3.73
2022-11-07T11:31:02.048Z,3.37
2022-11-07T11:33:36.835Z,5.37
2022-11-07T11:36:12.472Z,3.70
2022-11-07T11:38:40.698Z,5.03
2022-11-07T11:41:17.363Z,5.20
2022-11-07T11:43:49.657Z,3.43
2022-11-07T11:46:27.168Z,5.07
2022-11-07T11:49:00.688Z,3.60
2022-11-07T11:51:38.682Z,3.67
2022-11-07T11:54:10.734Z,5.90
2022-11-07T11:56:58.200Z,4.57
2022-11-07T11:59:40.244Z,2.97
2022-11-07T12:02:31.020Z,3.97
2022-11-07T12:05:12.281Z,6.90
2022-11-07T12:07:57.046Z,4.07
2022-11-07T12:10:33.237Z,3.67
2022-11-07T12:13:13.143Z,7.30
2022-11-07T12:15:50.564Z,4.47
2022-11-07T12:18:26.786Z,3.87
2022-11-07T12:21:07.494Z,3.70
2022-11-07T12:23:49.612Z,2.93
2022-11-07T12:26:25.585Z,5.07
2022-11-07T12:29:03.232Z,3.80
2022-11-07T12:31:47.460Z,4.17
2022-11-07T12:34:32.114Z,3.40
2022-11-07T12:37:16.911Z,5.23
2022-11-07T12:40:00.137Z,3.13
2022-11-07T12:42:40.336Z,5.53
2022-11-07T12:45:19.036Z,3.97
2022-11-07T12:48:11.873Z,4.47
2022-11-07T12:50:49.334Z,4.43
2022-11-07T12:53:31.273Z,3.43
2022-11-07T12:56:04.246Z,3.43
2022-11-07T12:58:34.925Z,3.23
2022-11-07T13:01:04.303Z,5.07
2022-11-07T13:03:43.595Z,4.67
2022-11-07T13:06:16.907Z,3.90
2022-11-07T13:08:53.038Z,5.67
2022-11-07T13:11:43.241Z,3.97
2022-11-07T13:14:37.067Z,5.53
2022-11-07T13:17:15.318Z,4.10
2022-11-07T13:19:45.467Z,4.40
2022-11-07T13:22:28.125Z,4.57
2022-11-07T13:25:13.464Z,4.77
2022-11-07T13:27:47.303Z,4.60
2022-11-07T13:30:23.634Z,6.20
2022-11-07T13:32:53.206Z,3.93
2022-11-07T13:35:29.551Z,4.83
2022-11-07T13:38:05.918Z,5.27
2022-11-07T13:40:38.980Z,6.13
2022-11-07T13:43:16.355Z,4.70
2022-11-07T13:45:50.781Z,5.10
2022-11-07T13:48:22.647Z,5.27
2022-11-07T13:50:58.888Z,4.30
2022-11-07T13:53:33.340Z,7.03
2022-11-07T13:56:04.291Z,4.50
2022-11-07T13:58:38.241Z,4.00
2022-11-07T14:01:18.332Z,4.57
2022-11-07T14:03:46.452Z,5.77
2022-11-07T14:06:15.635Z,3.93
2022-11-07T14:08:54.246Z,4.93
2022-11-07T14:11:24.704Z,3.67
2022-11-07T14:13:55.936Z,5.10
2022-11-07T14:16:26.641Z,4.87
2022-11-07T14:18:59.196Z,4.43
2022-11-07T14:21:28.936Z,4.13
2022-11-07T14:23:57.274Z,4.90
2022-11-07T14:26:28.441Z,5.53
2022-11-07T14:29:00.631Z,6.00
2022-11-07T14:31:30.803Z,4.43
2022-11-07T14:34:02.047Z,5.60
2022-11-07T14:36:31.758Z,5.43
2022-11-07T14:39:07.938Z,5.00
2022-11-07T14:41:41.976Z,4.70
2022-11-07T14:44:16.919Z,3.83
2022-11-07T14:46:47.532Z,4.87
2022-11-07T14:49:23.250Z,3.70
2022-11-07T14:51:52.689Z,3.70
2022-11-07T14:54:23.565Z,7.50
2022-11-07T14:56:55.513Z,5.87
2022-11-07T14:59:27.221Z,4.13
2022-11-07T15:01:58.548Z,7.37
2022-11-07T15:04:31.757Z,4.57
2022-11-07T15:07:12.873Z,4.47
2022-11-07T15:09:54.290Z,4.37
2022-11-07T15:12:25.086Z,5.70
2022-11-07T15:15:06.750Z,4.20
2022-11-07T15:17:51.305Z,7.33
2022-11-07T15:20:24.024Z,4.70
2022-11-07T15:22:52.137Z,7.10
2022-11-07T15:25:28.314Z,8.10
2022-11-07T15:27:57.078Z,7.63
2022-11-07T15:30:30.992Z,7.27
2022-11-07T15:33:00.555Z,7.30
2022-11-07T15:35:43.652Z,7.43
2022-11-07T15:38:19.722Z,8.87
2022-11-07T15:40:48.545Z,9.63
2022-11-07T15:43:16.697Z,8.30
2022-11-07T15:45:47.338Z,10.00
2022-11-07T15:48:18.556Z,9.17
2022-11-07T15:50:48.592Z,8.37
2022-11-07T15:53:20.916Z,10.57
2022-11-07T15:55:49.861Z,7.60
2022-11-07T15:58:21.104Z,12.50
2022-11-07T16:00:51.563Z,9.13
2022-11-07T16:03:21.331Z,9.17
2022-11-07T16:05:51.294Z,11.67
2022-11-07T16:08:21.132Z,13.23
2022-11-07T16:10:52.301Z,10.37
2022-11-07T16:13:20.959Z,11.97
2022-11-07T16:15:54.390Z,26.07
2022-11-07T16:18:23.521Z,31.23
2022-11-07T16:20:52.236Z,29.60
2022-11-07T16:23:20.563Z,17.53
2022-11-07T16:25:51.405Z,17.43
2022-11-07T16:28:30.324Z,12.73
2022-11-07T16:30:59.897Z,10.63
2022-11-07T16:33:28.871Z,10.77
2022-11-07T16:35:59.761Z,11.23
2022-11-07T16:38:34.864Z,9.13
2022-11-07T16:41:04.067Z,8.27
2022-11-07T16:43:35.104Z,10.67
2022-11-07T16:46:06.331Z,7.37
2022-11-07T16:48:38.719Z,12.17
2022-11-07T16:51:08.552Z,8.57
2022-11-07T16:53:36.535Z,8.07
2022-11-07T16:56:04.900Z,7.70
2022-11-07T16:58:41.340Z,11.63
2022-11-07T17:01:17.379Z,12.17
2022-11-07T17:03:45.682Z,11.03
2022-11-07T17:06:20.646Z,12.40
2022-11-07T17:08:49.102Z,13.10
2022-11-07T17:11:18.587Z,14.07
2022-11-07T17:13:46.956Z,13.00
2022-11-07T17:16:19.734Z,12.60
2022-11-07T17:18:49.020Z,11.70
2022-11-07T17:21:25.791Z,11.50
2022-11-07T17:23:54.977Z,10.30
2022-11-07T17:26:24.471Z,11.20
2022-11-07T17:28:53.400Z,10.97
2022-11-07T17:31:22.988Z,12.63
2022-11-07T17:33:53.784Z,12.67
2022-11-07T17:36:36.256Z,13.30
2022-11-07T17:39:07.974Z,16.17
2022-11-07T17:41:37.017Z,14.67
2022-11-07T17:44:05.092Z,16.53
2022-11-07T17:46:35.796Z,15.37
2022-11-07T17:49:06.723Z,15.40
2022-11-07T17:51:35.886Z,17.90
2022-11-07T17:54:06.341Z,18.50
2022-11-07T17:56:35.186Z,15.60
2022-11-07T17:59:05.470Z,16.57
2022-11-07T18:01:38.223Z,16.53
2022-11-07T18:04:07.729Z,18.07
2022-11-07T18:06:37.174Z,20.70
2022-11-07T18:09:07.278Z,20.87
2022-11-07T18:11:36.774Z,18.60
2022-11-07T18:14:04.800Z,17.03
2022-11-07T18:16:36.080Z,17.93
2022-11-07T18:19:06.063Z,18.00
2022-11-07T18:21:34.315Z,18.53
2022-11-07T18:24:02.296Z,18.50
2022-11-07T18:26:31.952Z,18.47
2022-11-07T18:29:03.297Z,17.73
2022-11-07T18:31:31.926Z,17.07
2022-11-07T18:34:04.456Z,19.00
2022-11-07T18:36:35.039Z,19.93
2022-11-07T18:39:06.597Z,16.97
2022-11-07T18:41:34.577Z,18.27
2022-11-07T18:44:05.084Z,17.27
2022-11-07T18:46:33.403Z,20.57
2022-11-07T18:49:03.267Z,19.77
2022-11-07T18:51:31.633Z,20.63
2022-11-07T18:54:01.537Z,19.83
2022-11-07T18:56:29.687Z,18.67
2022-11-07T18:58:57.704Z,18.67
2022-11-07T19:01:29.034Z,19.70
2022-11-07T19:03:58.604Z,19.37
2022-11-07T19:06:30.397Z,19.80
2022-11-07T19:08:58.584Z,19.27
2022-11-07T19:11:41.408Z,18.17
2022-11-07T19:14:10.656Z,21.30
2022-11-07T19:16:39.328Z,20.20
2022-11-07T19:19:07.411Z,19.97
2022-11-07T19:21:39.138Z,21.97
2022-11-07T19:24:09.718Z,22.00
2022-11-07T19:26:39.552Z,23.83
2022-11-07T19:29:09.839Z,23.03
2022-11-07T19:31:37.949Z,20.87
2022-11-07T19:34:06.632Z,20.27
2022-11-07T19:36:37.012Z,19.63
2022-11-07T19:39:05.480Z,20.07
2022-11-07T19:41:33.481Z,20.47
2022-11-07T19:44:04.210Z,18.83
2022-11-07T19:46:32.898Z,20.90
2022-11-07T19:49:00.898Z,19.67
2022-11-07T19:51:29.155Z,20.30
2022-11-07T19:54:02.947Z,19.17
2022-11-07T19:56:32.905Z,18.13
2022-11-07T19:59:04.528Z,17.17
2022-11-07T20:01:34.478Z,19.20
2022-11-07T20:04:03.514Z,19.23
2022-11-07T20:06:35.414Z,19.20
2022-11-07T20:09:13.457Z,21.30
2022-11-07T20:11:42.865Z,18.40
2022-11-07T20:14:12.398Z,20.67
2022-11-07T20:16:40.404Z,20.83
2022-11-07T20:19:08.802Z,22.00
2022-11-07T20:21:37.049Z,23.20
2022-11-07T20:24:15.428Z,22.67
2022-11-07T20:26:45.764Z,21.03
2022-11-07T20:29:15.560Z,19.30
2022-11-07T20:31:45.206Z,20.43
2022-11-07T20:34:15.069Z,21.37
2022-11-07T20:36:43.221Z,19.47
2022-11-07T20:39:13.964Z,21.90
2022-11-07T20:41:42.705Z,21.23
2022-11-07T20:44:14.128Z,21.23
2022-11-07T20:46:43.570Z,21.83
2022-11-07T20:49:14.127Z,22.70
2022-11-07T20:51:42.451Z,22.30
2022-11-07T20:54:14.674Z,21.40
2022-11-07T20:56:43.921Z,20.17
2022-11-07T20:59:12.313Z,20.83
2022-11-07T21:01:40.411Z,25.17
2022-11-07T21:04:10.553Z,26.43
2022-11-07T21:06:38.961Z,27.63
2022-11-07T21:09:07.490Z,27.87
2022-11-07T21:11:37.606Z,25.20
2022-11-07T21:14:06.096Z,27.27
2022-11-07T21:16:35.493Z,27.87
2022-11-07T21:19:05.082Z,27.10
2022-11-07T21:21:33.877Z,28.67
2022-11-07T21:24:02.158Z,32.03
2022-11-07T21:26:33.324Z,30.33
2022-11-07T21:29:05.904Z,31.17
2022-11-07T21:31:37.851Z,31.10
2022-11-07T21:34:07.374Z,30.97
2022-11-07T21:36:37.953Z,28.50
2022-11-07T21:39:08.889Z,33.90
2022-11-07T21:41:38.141Z,31.50
2022-11-07T21:44:07.664Z,33.07
2022-11-07T21:46:35.672Z,35.07
2022-11-07T21:49:04.902Z,32.87
2022-11-07T21:51:34.635Z,35.27
2022-11-07T21:54:04.006Z,34.87
2022-11-07T21:56:33.797Z,33.97
2022-11-07T21:59:03.358Z,34.27
2022-11-07T22:01:34.978Z,35.30
2022-11-07T22:04:07.421Z,35.23
2022-11-07T22:06:37.656Z,33.63
2022-11-07T22:09:08.449Z,32.57
2022-11-07T22:11:36.540Z,33.57
2022-11-07T22:14:04.958Z,33.33
2022-11-07T22:16:34.578Z,33.23
2022-11-07T22:19:02.660Z,33.77
2022-11-07T22:21:31.351Z,31.90
2022-11-07T22:23:59.666Z,34.57
2022-11-07T22:26:29.159Z,35.33
2022-11-07T22:28:57.443Z,35.57
2022-11-07T22:31:26.915Z,35.97
2022-11-07T22:33:57.006Z,38.33
2022-11-07T22:36:25.140Z,34.37
2022-11-07T22:38:53.479Z,39.53
2022-11-07T22:41:23.443Z,39.77
2022-11-07T22:43:52.282Z,35.00
2022-11-07T22:46:22.022Z,38.53
2022-11-07T22:48:51.086Z,39.57
2022-11-07T22:51:23.292Z,37.37
2022-11-07T22:53:57.188Z,36.73
2022-11-07T22:56:25.586Z,40.17
2022-11-07T22:58:53.692Z,37.80
2022-11-07T23:01:23.678Z,38.63
2022-11-07T23:03:53.504Z,37.43
2022-11-07T23:06:23.584Z,40.03
2022-11-07T23:08:52.542Z,41.83
2022-11-07T23:14:13.260Z,37.07
2022-11-07T23:16:45.148Z,34.47
2022-11-07T23:19:15.229Z,35.57
2022-11-07T23:21:45.114Z,35.77
2022-11-07T23:24:13.812Z,36.50
2022-11-07T23:26:42.459Z,36.10
2022-11-07T23:29:13.464Z,36.50
2022-11-07T23:31:41.599Z,38.07
2022-11-07T23:34:09.668Z,37.97
2022-11-07T23:36:37.859Z,37.77
2022-11-07T23:39:09.747Z,43.53
2022-11-07T23:41:37.781Z,34.93
2022-11-07T23:44:06.047Z,33.67
2022-11-07T23:46:58.515Z,36.20
2022-11-07T23:49:49.441Z,36.97
2022-11-07T23:52:18.025Z,34.43
2022-11-07T23:55:04.983Z,35.93
2022-11-07T23:57:55.404Z,34.13
